Time;durP1;ratioP1;P1;durP2;ratioP2;P2;SDS_P1;SDS_P2;PMS_P1;PMS_P2;Temp;Humidity;BMP_temperature;BMP_pressure;BME280_temperature;BME280_humidity;BME280_pressure;Samples;Min_cycle;Max_cycle;Signal;HPM_P1;HPM_P2
2021/10/31 00:01:56;;;;;;;29.33;26.48;;;;;;;9.85;60.46;99589.84;10586784;28;20096;-76
2021/10/31 00:06:58;;;;;;;31.05;27.77;;;;;;;9.93;60.06;99593.06;10587587;28;20054;-77
2021/10/31 00:12:00;;;;;;;30.02;27.05;;;;;;;9.82;60.27;99603.91;10589000;28;20126;-76
2021/10/31 00:17:02;;;;;;;30.60;27.42;;;;;;;9.87;60.19;99595.88;10569088;28;20047;-77
2021/10/31 00:22:04;;;;;;;30.02;27.33;;;;;;;10.05;59.50;99610.16;10568295;28;20052;-75
2021/10/31 00:27:06;;;;;;;29.95;26.90;;;;;;;9.87;59.91;99622.13;10587255;28;20043;-77
2021/10/31 00:32:07;;;;;;;31.50;27.13;;;;;;;9.80;60.21;99615.41;10566697;28;20496;-76
2021/10/31 00:37:10;;;;;;;30.55;27.73;;;;;;;9.88;59.73;99618.63;10570352;28;20052;-76
2021/10/31 00:42:12;;;;;;;33.05;28.17;;;;;;;9.98;59.46;99620.00;10578041;28;20053;-76
2021/10/31 00:47:13;;;;;;;30.85;27.67;;;;;;;9.84;59.97;99624.88;10578285;28;20036;-76
2021/10/31 00:52:16;;;;;;;29.15;26.33;;;;;;;9.69;60.40;99626.25;10577600;28;20055;-77
2021/10/31 00:57:18;;;;;;;33.58;28.42;;;;;;;9.58;60.85;99625.78;10595300;28;20039;-76
2021/10/31 01:02:20;;;;;;;31.45;28.00;;;;;;;9.73;60.32;99622.63;10594861;28;20489;-77
2021/10/31 01:07:47;;;;;;;30.20;27.33;;;;;;;9.69;60.72;99622.78;10593392;28;20119;-76
2021/10/31 01:13:10;;;;;;;31.45;28.17;;;;;;;9.52;61.26;99624.25;10593812;28;20408;-76
2021/10/31 01:18:45;;;;;;;31.23;28.30;;;;;;;9.47;61.59;99631.38;10576351;28;20043;-76
2021/10/31 01:23:56;;;;;;;31.40;28.45;;;;;;;9.62;61.46;99610.81;10575962;28;20055;-77
2021/10/31 01:29:25;;;;;;;37.20;29.98;;;;;;;9.50;61.71;99640.94;10575265;28;20035;-76
2021/10/31 01:35:04;;;;;;;33.72;30.05;;;;;;;9.22;63.03;99622.63;10593951;28;20131;-77
2021/10/31 01:40:28;;;;;;;33.35;29.88;;;;;;;9.42;62.16;99629.81;10592278;28;20054;-75
2021/10/31 01:45:48;;;;;;;30.95;27.92;;;;;;;9.30;62.72;99633.75;10593600;28;20123;-76
2021/10/31 01:50:57;;;;;;;33.08;29.65;;;;;;;9.34;62.76;99638.81;10592217;28;20484;-76
2021/10/31 01:56:08;;;;;;;32.65;29.50;;;;;;;9.43;62.06;99635.03;10575932;28;20044;-76
2021/10/31 02:01:14;;;;;;;33.85;30.42;;;;;;;9.27;63.14;99639.06;10592937;28;20370;-76
2021/10/31 02:06:17;;;;;;;33.13;29.90;;;;;;;9.33;62.64;99652.81;10573608;28;20044;-77
2021/10/31 02:11:20;;;;;;;34.45;30.70;;;;;;;9.17;63.44;99653.41;10555827;28;20055;-76
2021/10/31 02:16:23;;;;;;;36.70;32.38;;;;;;;9.35;62.85;99650.19;10555381;28;20044;-76
2021/10/31 02:21:26;;;;;;;34.28;30.65;;;;;;;9.41;62.71;99652.59;10590880;28;20058;-76
2021/10/31 02:26:28;;;;;;;35.90;32.38;;;;;;;9.54;62.44;99653.03;10590891;28;20450;-76
2021/10/31 02:31:29;;;;;;;35.50;32.00;;;;;;;9.64;62.06;99666.69;10572133;28;20058;-77
2021/10/31 02:36:33;;;;;;;36.50;32.38;;;;;;;9.60;62.45;99666.78;10573160;28;20175;-78
2021/10/31 02:41:36;;;;;;;34.97;31.65;;;;;;;9.63;62.54;99675.50;10570978;28;20050;-77
2021/10/31 02:46:37;;;;;;;34.97;31.63;;;;;;;9.41;63.24;99686.69;10588423;28;20036;-77
2021/10/31 02:51:59;;;;;;;38.33;33.47;;;;;;;9.61;62.87;99686.03;10570993;28;20047;-77
2021/10/31 02:57:31;;;;;;;37.13;33.20;;;;;;;9.38;63.65;99681.53;10589465;28;20043;-76
2021/10/31 03:02:33;;;;;;;40.67;33.75;;;;;;;9.49;63.26;99686.44;10569533;28;20489;-76
2021/10/31 03:07:36;;;;;;;38.03;33.97;;;;;;;9.54;63.14;99688.00;10569381;28;20039;-76
2021/10/31 03:12:37;;;;;;;42.95;35.40;;;;;;;9.56;63.21;99682.69;10569800;28;20047;-76
2021/10/31 03:17:39;;;;;;;42.45;35.58;;;;;;;9.51;63.59;99688.09;10554550;28;20489;-77
2021/10/31 03:22:41;;;;;;;47.47;37.83;;;;;;;9.47;63.98;99688.25;10590001;28;20040;-77
2021/10/31 03:27:42;;;;;;;44.67;37.20;;;;;;;9.59;63.69;99695.72;10588760;28;20472;-76
2021/10/31 03:32:44;;;;;;;43.20;35.67;;;;;;;9.57;63.89;99695.78;10587268;28;20052;-77
2021/10/31 03:37:46;;;;;;;44.05;36.40;;;;;;;9.49;63.78;99700.41;10587775;28;20065;-76
2021/10/31 03:42:48;;;;;;;45.47;36.53;;;;;;;9.53;63.76;99699.41;10569199;28;20047;-76
2021/10/31 03:47:50;;;;;;;43.17;36.88;;;;;;;9.50;64.12;99688.16;10587426;28;20040;-76
2021/10/31 03:52:55;;;;;;;45.97;37.28;;;;;;;9.47;64.43;99693.50;10587828;28;20472;-76
2021/10/31 03:57:57;;;;;;;46.78;38.78;;;;;;;9.45;64.22;99683.06;10568273;28;20043;-77
2021/10/31 04:02:59;;;;;;;52.63;39.05;;;;;;;9.51;64.63;99688.09;10569881;28;20043;-76
2021/10/31 04:08:01;;;;;;;48.13;38.35;;;;;;;9.48;64.73;99693.47;10552382;28;20518;-76
2021/10/31 04:13:02;;;;;;;43.60;37.78;;;;;;;9.63;64.18;99685.97;10567670;28;20055;-76
2021/10/31 04:18:04;;;;;;;45.30;37.38;;;;;;;9.55;64.61;99692.34;10550400;28;20044;-77
2021/10/31 04:23:06;;;;;;;46.05;37.97;;;;;;;9.33;65.56;99693.94;10569387;28;20039;-76
2021/10/31 04:28:07;;;;;;;47.40;39.22;;;;;;;9.20;66.00;99703.09;10569332;28;20043;-77
2021/10/31 04:33:09;;;;;;;46.45;40.08;;;;;;;9.18;66.14;99708.41;10597281;22;20408;-73
2021/10/31 04:38:18;;;;;;;48.78;39.40;;;;;;;9.28;66.02;99706.34;10581107;28;20511;-73
2021/10/31 04:43:23;;;;;;;44.92;38.92;;;;;;;9.54;65.19;99702.88;10563396;28;20403;-73
2021/10/31 04:48:24;;;;;;;49.40;39.15;;;;;;;9.60;64.92;99694.81;10562585;28;20069;-75
2021/10/31 04:53:26;;;;;;;42.88;36.75;;;;;;;9.62;64.81;99697.41;10562749;28;20096;-74
2021/10/31 04:58:28;;;;;;;54.92;38.15;;;;;;;9.70;64.42;99703.25;10580071;28;20043;-74
2021/10/31 05:03:29;;;;;;;46.22;37.83;;;;;;;9.42;65.41;99706.75;10581096;28;20377;-74
2021/10/31 05:08:31;;;;;;;43.40;37.80;;;;;;;9.67;64.56;99709.44;10580426;28;20048;-74
2021/10/31 05:13:33;;;;;;;44.20;37.72;;;;;;;9.74;64.37;99697.84;10579860;28;20044;-74
2021/10/31 05:18:35;;;;;;;44.28;39.03;;;;;;;9.54;65.31;99695.88;10579989;28;20051;-75
2021/10/31 05:23:37;;;;;;;47.55;41.05;;;;;;;9.58;65.13;99701.88;10582826;28;20054;-75
2021/10/31 05:28:41;;;;;;;49.90;41.33;;;;;;;9.29;65.63;99698.41;10576413;28;20044;-75
2021/10/31 05:33:44;;;;;;;50.33;41.47;;;;;;;9.47;65.14;99701.38;10522051;28;1437571;-74
2021/10/31 05:38:46;;;;;;;58.47;41.45;;;;;;;9.44;64.74;99704.97;10575695;28;20051;-75
2021/10/31 05:43:48;;;;;;;53.90;41.75;;;;;;;9.23;65.70;99724.00;10573196;28;20050;-73
2021/10/31 05:48:50;;;;;;;50.53;41.45;;;;;;;9.46;65.31;99718.03;10589698;28;20040;-74
2021/10/31 05:53:51;;;;;;;51.72;41.42;;;;;;;9.38;65.72;99713.00;10589252;28;20089;-74
2021/10/31 05:58:53;;;;;;;48.15;39.08;;;;;;;9.40;65.60;99698.09;10589787;28;20093;-75
2021/10/31 06:03:56;;;;;;;53.78;41.60;;;;;;;9.43;65.43;99702.38;10588250;28;20048;-74
2021/10/31 06:08:57;;;;;;;54.03;41.42;;;;;;;9.48;65.25;99698.72;10588415;28;20114;-74
2021/10/31 06:14:02;;;;;;;48.53;40.58;;;;;;;9.45;65.54;99703.19;10571599;28;20082;-75
2021/10/31 06:19:05;;;;;;;51.05;41.35;;;;;;;9.59;65.17;99711.47;10570661;28;20036;-74
2021/10/31 06:24:06;;;;;;;50.42;41.92;;;;;;;9.67;64.70;99713.84;10587806;28;20055;-74
2021/10/31 06:29:08;;;;;;;49.75;41.63;;;;;;;9.75;64.57;99709.19;10586814;28;20101;-75
2021/10/31 06:34:10;;;;;;;48.42;38.25;;;;;;;9.76;64.62;99724.88;10568548;28;20519;-75
2021/10/31 06:39:11;;;;;;;46.38;39.42;;;;;;;9.89;64.39;99714.84;10569310;28;20040;-74
2021/10/31 06:44:13;;;;;;;43.17;38.40;;;;;;;9.84;64.29;99709.75;10588682;28;20499;-76
2021/10/31 06:49:15;;;;;;;48.70;38.63;;;;;;;9.97;64.21;99714.59;10587143;28;20039;-76
2021/10/31 06:54:16;;;;;;;49.45;39.67;;;;;;;9.93;64.42;99721.69;10568420;28;20047;-75
2021/10/31 06:59:18;;;;;;;47.83;38.35;;;;;;;9.99;64.65;99716.22;10587781;28;20051;-75
2021/10/31 07:04:20;;;;;;;43.78;37.92;;;;;;;10.10;63.77;99716.72;10587037;28;20043;-74
2021/10/31 07:09:21;;;;;;;49.92;38.47;;;;;;;10.16;63.57;99712.16;10569482;28;20046;-74
2021/10/31 07:14:23;;;;;;;44.38;37.17;;;;;;;10.13;63.74;99715.75;10588367;28;20409;-75
2021/10/31 07:19:25;;;;;;;43.13;38.50;;;;;;;10.10;63.48;99729.84;10586804;28;20036;-75
2021/10/31 07:24:26;;;;;;;44.58;38.42;;;;;;;10.15;63.31;99736.72;10586668;28;20093;-75
2021/10/31 07:29:28;;;;;;;46.20;38.55;;;;;;;10.11;63.84;99734.19;10586625;28;20088;-75
2021/10/31 07:34:31;;;;;;;47.67;38.83;;;;;;;10.22;62.99;99738.22;10569123;28;20040;-75
2021/10/31 07:39:35;;;;;;;42.97;38.33;;;;;;;10.20;63.78;99740.91;10585808;28;20043;-75
2021/10/31 07:44:37;;;;;;;50.70;39.95;;;;;;;10.38;63.04;99738.56;10566888;28;20047;-75
2021/10/31 07:49:38;;;;;;;46.22;37.72;;;;;;;10.48;63.28;99730.28;10586616;28;20039;-75
2021/10/31 07:54:40;;;;;;;40.70;36.55;;;;;;;10.53;63.03;99722.25;10587172;28;20040;-75
2021/10/31 07:59:45;;;;;;;40.38;36.03;;;;;;;10.70;62.54;99725.09;10569196;28;20039;-75
2021/10/31 08:04:47;;;;;;;41.92;37.70;;;;;;;10.95;61.63;99726.81;10567585;28;20051;-75
2021/10/31 08:09:48;;;;;;;39.97;35.97;;;;;;;10.88;61.58;99720.94;10586624;28;20039;-75
2021/10/31 08:14:50;;;;;;;38.63;34.55;;;;;;;11.01;60.93;99724.81;10584869;28;20047;-76
2021/10/31 08:19:51;;;;;;;39.95;36.15;;;;;;;11.06;60.93;99727.25;10567200;28;20039;-76
2021/10/31 08:24:53;;;;;;;46.10;34.67;;;;;;;11.37;59.34;99711.13;10584229;28;20105;-74
2021/10/31 08:29:55;;;;;;;38.65;34.67;;;;;;;11.62;58.96;99705.72;10584240;28;20503;-73
2021/10/31 08:34:57;;;;;;;37.63;33.83;;;;;;;11.58;59.81;99712.88;10583208;28;20044;-75
2021/10/31 08:39:59;;;;;;;36.25;33.03;;;;;;;11.80;58.64;99707.59;10565328;28;20044;-76
2021/10/31 08:45:01;;;;;;;38.13;33.97;;;;;;;11.86;59.00;99699.47;10583613;28;20055;-75
2021/10/31 08:50:04;;;;;;;36.95;33.65;;;;;;;11.95;58.61;99687.66;10582984;28;20570;-75
2021/10/31 08:55:06;;;;;;;37.47;33.60;;;;;;;12.03;58.60;99687.34;10582701;28;20048;-75
2021/10/31 09:00:08;;;;;;;35.90;32.58;;;;;;;12.46;56.96;99683.69;10588865;28;20097;-75
2021/10/31 09:05:10;;;;;;;38.03;33.53;;;;;;;12.56;57.37;99670.94;10573797;28;20079;-76
2021/10/31 09:10:12;;;;;;;36.05;32.45;;;;;;;12.78;56.29;99662.88;10591944;28;20044;-75
2021/10/31 09:15:13;;;;;;;35.45;32.30;;;;;;;12.90;55.92;99645.63;10592568;28;20043;-75
2021/10/31 09:20:18;;;;;;;37.25;33.13;;;;;;;12.85;56.22;99640.56;10592214;28;20040;-75
2021/10/31 09:25:21;;;;;;;34.83;31.48;;;;;;;13.22;55.12;99634.41;10591153;28;20032;-76
2021/10/31 09:30:23;;;;;;;32.92;29.65;;;;;;;13.40;55.09;99613.31;10590816;28;20044;-76
2021/10/31 09:35:27;;;;;;;34.92;31.45;;;;;;;13.55;54.90;99616.06;10590282;28;20051;-76
2021/10/31 09:40:30;;;;;;;31.23;28.58;;;;;;;13.78;54.43;99608.72;10590488;28;20044;-76
2021/10/31 09:45:35;;;;;;;30.58;27.92;;;;;;;14.07;53.91;99591.34;10589899;28;20096;-75
2021/10/31 09:50:47;;;;;;;30.23;27.73;;;;;;;14.22;53.37;99584.41;10589760;28;20062;-76
2021/10/31 09:56:00;;;;;;;30.45;27.85;;;;;;;14.45;52.47;99584.00;10571562;28;20059;-77
2021/10/31 10:01:13;;;;;;;30.13;27.35;;;;;;;14.57;51.91;99570.13;10571142;28;20047;-75
2021/10/31 10:06:22;;;;;;;33.13;29.83;;;;;;;14.60;51.79;99566.44;10590026;28;20028;-75
2021/10/31 10:11:24;;;;;;;28.90;26.80;;;;;;;14.58;51.99;99566.53;10588402;28;20055;-75
2021/10/31 10:16:30;;;;;;;30.02;27.63;;;;;;;14.49;52.30;99551.19;10589785;28;20050;-75
2021/10/31 10:21:32;;;;;;;28.88;26.58;;;;;;;14.73;51.96;99545.44;10570745;28;20047;-74
2021/10/31 10:26:41;;;;;;;28.45;26.15;;;;;;;14.82;51.34;99545.78;10569718;28;20040;-75
2021/10/31 10:31:45;;;;;;;27.23;25.42;;;;;;;15.10;50.92;99542.41;10572012;28;20048;-76
2021/10/31 10:36:49;;;;;;;27.67;25.75;;;;;;;15.50;49.29;99549.81;10597989;22;20040;-72
2021/10/31 10:41:53;;;;;;;29.42;27.23;;;;;;;15.29;49.21;99538.69;10586236;28;20043;-72
2021/10/31 10:47:05;;;;;;;29.92;27.17;;;;;;;15.29;49.66;99536.88;10584069;28;20048;-73
2021/10/31 10:52:24;;;;;;;32.65;29.50;;;;;;;15.50;50.44;99534.75;10585208;28;20381;-71
2021/10/31 10:57:30;;;;;;;29.60;27.05;;;;;;;15.46;49.83;99527.09;10569484;28;20040;-71
2021/10/31 11:02:32;;;;;;;30.63;28.17;;;;;;;15.81;49.04;99522.34;10584552;28;20553;-73
2021/10/31 11:07:45;;;;;;;29.23;26.98;;;;;;;16.20;48.19;99510.19;10567878;28;20122;-73
2021/10/31 11:12:50;;;;;;;30.17;27.65;;;;;;;16.22;48.50;99509.16;10584332;28;20074;-73
2021/10/31 11:17:56;;;;;;;29.90;27.90;;;;;;;16.12;48.34;99492.13;10565699;28;20097;-72
2021/10/31 11:23:01;;;;;;;29.15;26.63;;;;;;;16.20;48.40;99488.97;10566009;28;20111;-73
2021/10/31 11:28:10;;;;;;;28.85;26.08;;;;;;;16.25;47.92;99482.44;10565017;28;20050;-73
2021/10/31 11:33:13;;;;;;;28.75;26.15;;;;;;;15.95;48.59;99493.19;10583245;28;20493;-72
2021/10/31 11:38:20;;;;;;;30.23;28.00;;;;;;;16.18;48.13;99475.81;10583127;28;20031;-71
2021/10/31 11:43:32;;;;;;;29.85;27.63;;;;;;;15.85;48.51;99478.81;10582532;28;20092;-72
2021/10/31 11:48:36;;;;;;;30.45;28.20;;;;;;;15.60;48.70;99458.22;10564966;28;20052;-72
2021/10/31 11:54:03;;;;;;;30.30;27.58;;;;;;;15.50;50.05;99463.25;10582328;28;20048;-72
2021/10/31 11:59:15;;;;;;;30.60;28.40;;;;;;;15.52;48.86;99452.53;10564290;28;20040;-70
2021/10/31 12:10:32;;;;;;;29.23;27.02;;;;;;;15.14;49.82;99435.41;10581018;28;20046;-71
2021/10/31 12:15:34;;;;;;;28.63;26.50;;;;;;;14.90;50.75;99423.63;10580806;28;20484;-70
2021/10/31 12:20:50;;;;;;;27.88;25.65;;;;;;;14.87;50.07;99414.09;10562842;28;20048;-71
2021/10/31 12:25:53;;;;;;;31.52;28.10;;;;;;;14.70;50.42;99408.06;10582529;28;20377;-71
2021/10/31 12:31:21;;;;;;;28.23;25.77;;;;;;;14.62;51.01;99406.72;10581289;28;20160;-71
2021/10/31 12:36:30;;;;;;;30.20;27.25;;;;;;;14.72;50.23;99400.91;10562891;28;20067;-71
2021/10/31 12:41:35;;;;;;;30.45;27.95;;;;;;;14.73;50.26;99402.59;10568746;28;20070;-72
2021/10/31 12:46:36;;;;;;;30.38;27.42;;;;;;;14.53;50.45;99390.56;10543493;28;20032;-71
2021/10/31 12:52:03;;;;;;;30.60;27.77;;;;;;;14.52;50.57;99386.19;10551170;28;20044;-71
2021/10/31 12:57:09;;;;;;;28.48;26.05;;;;;;;14.73;49.42;99373.50;10541799;28;20524;-72
2021/10/31 13:02:13;;;;;;;29.23;26.75;;;;;;;14.54;50.07;99369.28;10581122;28;20101;-71
2021/10/31 13:07:15;;;;;;;29.17;26.63;;;;;;;14.68;49.56;99362.34;10561843;28;20050;-71
2021/10/31 13:12:29;;;;;;;27.95;25.65;;;;;;;14.69;49.44;99356.09;10562457;28;20058;-71
2021/10/31 13:17:37;;;;;;;28.98;26.65;;;;;;;14.71;49.33;99343.66;10549988;28;20056;-72
2021/10/31 13:22:41;;;;;;;28.05;26.05;;;;;;;14.63;49.94;99334.38;10538952;28;20044;-72
2021/10/31 13:27:46;;;;;;;28.08;25.58;;;;;;;14.72;49.47;99338.25;10563645;28;20072;-70
2021/10/31 13:32:49;;;;;;;25.80;23.90;;;;;;;14.76;49.86;99337.13;10579994;28;20052;-71
2021/10/31 13:38:05;;;;;;;27.20;25.00;;;;;;;14.82;49.82;99330.59;10582720;28;20043;-71
2021/10/31 13:43:06;;;;;;;28.33;25.75;;;;;;;14.57;50.04;99324.16;10563981;28;20051;-72
2021/10/31 13:48:17;;;;;;;27.63;25.23;;;;;;;14.42;50.47;99329.47;10570025;28;20389;-72
2021/10/31 13:53:20;;;;;;;28.50;25.73;;;;;;;14.24;51.25;99347.25;10553858;28;20053;-71
2021/10/31 13:58:21;;;;;;;27.60;25.27;;;;;;;14.19;51.77;99336.09;10588679;28;20044;-72
2021/10/31 14:03:27;;;;;;;26.58;24.55;;;;;;;14.31;50.75;99336.22;10588701;28;20047;-72
2021/10/31 14:08:39;;;;;;;27.95;25.63;;;;;;;14.27;51.47;99331.22;10587966;28;20035;-72
2021/10/31 14:13:41;;;;;;;25.75;23.70;;;;;;;14.39;51.26;99333.16;10587839;28;20424;-72
2021/10/31 14:18:43;;;;;;;25.55;23.77;;;;;;;14.26;51.60;99330.38;10587748;28;20044;-72
2021/10/31 14:23:45;;;;;;;26.83;24.92;;;;;;;14.07;51.73;99333.19;10586898;28;20054;-74
2021/10/31 14:28:49;;;;;;;26.77;24.08;;;;;;;14.27;51.28;99333.84;10587511;28;20130;-72
2021/10/31 14:33:59;;;;;;;24.98;23.08;;;;;;;14.47;50.37;99322.09;10586673;28;20055;-71
2021/10/31 14:39:03;;;;;;;23.50;21.52;;;;;;;14.21;51.16;99327.16;10586566;28;20099;-71
2021/10/31 14:44:08;;;;;;;24.60;22.42;;;;;;;13.92;51.79;99314.75;10586615;28;20479;-70
2021/10/31 14:49:19;;;;;;;22.95;21.25;;;;;;;14.01;51.78;99315.06;10586032;28;20039;-71
2021/10/31 14:54:26;;;;;;;22.45;20.75;;;;;;;14.06;51.46;99318.28;10585240;28;20134;-72
2021/10/31 14:59:29;;;;;;;21.50;20.00;;;;;;;14.06;51.10;99305.06;10565755;28;20100;-72
2021/10/31 15:04:31;;;;;;;21.75;19.92;;;;;;;13.92;51.59;99310.31;10585315;28;20050;-72
2021/10/31 15:09:32;;;;;;;22.13;20.52;;;;;;;13.82;51.66;99299.41;10584517;28;20036;-72
2021/10/31 15:14:34;;;;;;;22.80;20.77;;;;;;;13.91;51.50;99294.56;10584612;28;20101;-71
2021/10/31 15:19:35;;;;;;;24.92;22.42;;;;;;;13.55;52.84;99288.63;10584472;28;20047;-72
2021/10/31 15:24:37;;;;;;;24.00;22.17;;;;;;;13.28;53.69;99277.81;10584551;28;20044;-72
2021/10/31 15:29:43;;;;;;;25.30;23.25;;;;;;;13.47;53.58;99280.28;10584748;28;20040;-71
2021/10/31 15:34:44;;;;;;;26.63;24.30;;;;;;;13.18;54.56;99276.53;10584060;28;20096;-72
2021/10/31 15:39:47;;;;;;;28.85;26.20;;;;;;;13.02;55.06;99266.00;10584909;28;20044;-72
2021/10/31 15:44:48;;;;;;;24.35;22.55;;;;;;;13.13;55.04;99253.03;10566753;28;20093;-72
2021/10/31 15:49:50;;;;;;;25.40;23.27;;;;;;;13.11;54.79;99259.34;10584646;28;20040;-72
2021/10/31 15:54:51;;;;;;;23.67;21.70;;;;;;;13.13;55.06;99250.41;10584794;28;20538;-72
2021/10/31 15:59:53;;;;;;;23.42;21.52;;;;;;;12.91;55.73;99238.47;10584136;28;20489;-73
2021/10/31 16:04:55;;;;;;;24.30;22.33;;;;;;;12.90;55.73;99234.13;10551315;28;20047;-72
2021/10/31 16:09:56;;;;;;;24.35;22.45;;;;;;;12.88;56.46;99226.28;10569629;28;20036;-71
2021/10/31 16:14:58;;;;;;;24.15;21.92;;;;;;;12.62;57.19;99231.19;10541572;28;20048;-72
2021/10/31 16:19:59;;;;;;;23.95;22.15;;;;;;;12.58;57.45;99227.00;10566425;28;20369;-72
2021/10/31 16:25:01;;;;;;;25.52;23.33;;;;;;;12.45;58.01;99222.47;10582497;28;20127;-70
2021/10/31 16:30:10;;;;;;;25.17;22.90;;;;;;;12.56;57.83;99225.38;10582415;28;20036;-73
2021/10/31 16:35:11;;;;;;;24.33;22.33;;;;;;;12.38;58.38;99217.50;10557623;28;20101;-72
2021/10/31 16:40:14;;;;;;;24.73;22.55;;;;;;;12.35;58.85;99216.81;10558377;28;20047;-71
2021/10/31 16:45:18;;;;;;;23.98;22.17;;;;;;;12.33;59.00;99208.13;10509795;22;20044;-74
2021/10/31 16:50:22;;;;;;;24.55;22.60;;;;;;;12.33;59.28;99208.13;10443738;28;20053;-74
2021/10/31 16:55:24;;;;;;;22.85;21.15;;;;;;;12.22;59.70;99211.34;10495783;28;20047;-74
2021/10/31 17:00:26;;;;;;;24.00;22.00;;;;;;;11.99;60.66;99201.94;10483510;28;20566;-75
2021/10/31 17:05:28;;;;;;;22.80;21.20;;;;;;;12.29;59.93;99206.59;10485728;28;20079;-73
2021/10/31 17:10:32;;;;;;;23.25;21.50;;;;;;;12.27;60.31;99187.38;10480140;28;20044;-73
2021/10/31 17:15:41;;;;;;;22.83;20.83;;;;;;;12.18;60.37;99190.50;10501768;28;20045;-74
2021/10/31 17:20:43;;;;;;;22.73;20.95;;;;;;;12.36;60.35;99186.91;10505009;28;20044;-75
2021/10/31 17:25:46;;;;;;;22.83;21.05;;;;;;;12.32;60.33;99188.00;10490510;28;20053;-75
2021/10/31 17:30:52;;;;;;;22.40;20.42;;;;;;;12.13;61.28;99172.31;10514329;28;20044;-76
2021/10/31 17:35:57;;;;;;;22.90;20.70;;;;;;;12.13;61.17;99169.66;10508498;28;20040;-76
2021/10/31 17:40:58;;;;;;;21.58;20.08;;;;;;;12.06;61.38;99155.94;10505194;28;20044;-75
2021/10/31 17:46:01;;;;;;;24.00;22.05;;;;;;;12.00;61.62;99147.53;10487364;28;20497;-75
2021/10/31 17:51:02;;;;;;;24.85;22.60;;;;;;;11.84;62.33;99157.97;10505446;28;20041;-75
2021/10/31 17:56:05;;;;;;;22.80;20.90;;;;;;;11.98;62.12;99146.72;10505346;28;20052;-75
2021/10/31 18:01:07;;;;;;;22.85;20.60;;;;;;;12.17;61.07;99142.19;10486287;28;20110;-74
2021/10/31 18:06:10;;;;;;;21.67;20.17;;;;;;;12.27;60.82;99127.63;10486181;28;20123;-75
2021/10/31 18:11:12;;;;;;;21.90;20.25;;;;;;;12.27;60.44;99122.34;10487598;28;20502;-76
2021/10/31 18:16:14;;;;;;;21.05;19.58;;;;;;;12.22;60.32;99112.97;10486580;28;20053;-75
2021/10/31 18:21:16;;;;;;;20.05;18.63;;;;;;;12.14;60.47;99113.41;10503669;28;20486;-74
2021/10/31 18:26:20;;;;;;;20.20;18.60;;;;;;;12.07;60.67;99101.47;10504011;28;20401;-74
2021/10/31 18:31:22;;;;;;;21.85;19.90;;;;;;;12.17;60.15;99093.94;10502461;28;20044;-74
2021/10/31 18:36:25;;;;;;;21.85;19.83;;;;;;;12.58;58.79;99089.94;10502887;28;20045;-74
2021/10/31 18:41:27;;;;;;;21.65;19.85;;;;;;;12.46;58.83;99085.31;10486256;28;20037;-74
2021/10/31 18:46:28;;;;;;;22.80;20.67;;;;;;;12.46;58.85;99077.41;10504975;28;20471;-75
2021/10/31 18:51:30;;;;;;;20.67;19.13;;;;;;;12.25;59.67;99082.06;10507128;28;20041;-75
2021/10/31 18:56:32;;;;;;;21.70;20.05;;;;;;;12.07;60.16;99086.53;10504948;28;20055;-76
2021/10/31 19:01:35;;;;;;;21.90;20.30;;;;;;;12.23;59.58;99075.19;10501464;28;20045;-76
2021/10/31 19:06:37;;;;;;;22.30;20.40;;;;;;;12.01;60.04;99060.50;10484481;28;20401;-74
2021/10/31 19:11:39;;;;;;;21.88;20.33;;;;;;;12.15;59.55;99053.66;10500287;28;20115;-74
2021/10/31 19:16:41;;;;;;;21.75;20.02;;;;;;;11.96;60.03;99049.38;10500701;28;20118;-75
2021/10/31 19:21:43;;;;;;;20.25;18.55;;;;;;;11.90;60.29;99054.94;10501044;28;20041;-75
2021/10/31 19:26:46;;;;;;;21.23;19.63;;;;;;;11.56;61.19;99048.78;10500392;28;20532;-75
2021/10/31 19:31:48;;;;;;;21.52;19.58;;;;;;;11.58;61.36;99039.03;10500934;28;20047;-76
2021/10/31 19:36:52;;;;;;;22.00;20.25;;;;;;;11.83;60.35;99033.38;10500454;28;20049;-75
2021/10/31 19:41:57;;;;;;;20.83;19.20;;;;;;;11.92;60.17;99023.28;10499841;28;20040;-75
2021/10/31 19:46:59;;;;;;;21.40;19.65;;;;;;;11.89;60.15;99019.03;10482106;28;20048;-75
2021/10/31 19:52:00;;;;;;;20.50;18.98;;;;;;;11.80;60.20;99009.78;10499449;28;20114;-75
2021/10/31 19:57:04;;;;;;;21.02;19.25;;;;;;;11.75;60.71;99006.56;10483160;28;20056;-75
2021/10/31 20:02:06;;;;;;;21.75;19.92;;;;;;;11.84;60.58;99000.00;10502053;28;20087;-74
2021/10/31 20:07:09;;;;;;;21.75;20.23;;;;;;;11.80;60.65;98988.72;10483654;28;20056;-74
2021/10/31 20:12:10;;;;;;;21.48;19.38;;;;;;;11.79;60.83;98976.50;10499860;28;20150;-75
2021/10/31 20:17:12;;;;;;;21.45;19.70;;;;;;;11.82;60.61;98963.22;10501611;28;20080;-74
2021/10/31 20:22:14;;;;;;;20.60;18.73;;;;;;;11.77;61.03;98959.09;10499580;28;20049;-75
2021/10/31 20:27:16;;;;;;;21.70;19.77;;;;;;;11.79;60.69;98942.28;10498310;28;20048;-76
2021/10/31 20:32:17;;;;;;;23.20;21.40;;;;;;;11.61;61.41;98930.97;10501737;28;20041;-75
2021/10/31 20:37:19;;;;;;;21.15;19.23;;;;;;;11.56;61.98;98926.88;10500988;28;20083;-75
2021/10/31 20:42:20;;;;;;;24.40;21.90;;;;;;;11.55;61.77;98920.78;10501169;28;20110;-74
2021/10/31 20:47:22;;;;;;;22.00;20.27;;;;;;;11.49;61.81;98907.91;10499514;28;20444;-75
2021/10/31 20:52:24;;;;;;;24.02;21.98;;;;;;;11.26;62.90;98896.00;10498742;28;20045;-76
2021/10/31 20:57:28;;;;;;;22.73;20.77;;;;;;;11.36;62.54;98893.72;10506791;28;20098;-75
2021/10/31 21:02:30;;;;;;;23.27;21.30;;;;;;;11.36;62.69;98891.09;10506748;28;20067;-76
2021/10/31 21:07:31;;;;;;;23.48;21.35;;;;;;;11.37;62.48;98885.72;10488901;28;20562;-74
2021/10/31 21:12:34;;;;;;;22.20;20.58;;;;;;;11.36;62.81;98889.31;10505667;28;20094;-75
2021/10/31 21:17:36;;;;;;;22.55;20.75;;;;;;;11.49;62.33;98886.88;10506690;28;20036;-75
2021/10/31 21:22:37;;;;;;;22.77;20.75;;;;;;;11.43;62.79;98875.84;10506792;28;20047;-75
2021/10/31 21:27:39;;;;;;;21.98;20.27;;;;;;;11.35;62.93;98870.97;10486684;28;20045;-74
2021/10/31 21:32:42;;;;;;;21.35;19.85;;;;;;;11.29;63.27;98860.78;10486764;28;20056;-75
2021/10/31 21:37:44;;;;;;;22.25;20.65;;;;;;;11.34;63.04;98867.50;10504866;28;20040;-75
2021/10/31 21:42:46;;;;;;;22.50;20.67;;;;;;;11.35;63.04;98855.19;10469884;28;20453;-75
2021/10/31 21:47:50;;;;;;;22.88;20.77;;;;;;;11.30;63.53;98844.91;10504447;28;20094;-76
2021/10/31 21:52:51;;;;;;;22.77;21.17;;;;;;;11.34;63.39;98835.09;10471312;28;20476;-77
2021/10/31 21:57:53;;;;;;;23.40;21.45;;;;;;;11.07;63.92;98827.72;10503688;28;20036;-75
2021/10/31 22:02:55;;;;;;;21.98;20.27;;;;;;;11.19;63.99;98825.38;10504732;28;20458;-75
2021/10/31 22:07:57;;;;;;;23.27;21.35;;;;;;;11.09;64.22;98823.22;10503456;28;20067;-75
2021/10/31 22:12:59;;;;;;;22.35;20.55;;;;;;;11.15;64.14;98827.31;10486011;28;20045;-76
2021/10/31 22:18:00;;;;;;;22.52;20.63;;;;;;;11.18;63.81;98821.03;10504018;28;20049;-75
2021/10/31 22:23:05;;;;;;;21.77;20.27;;;;;;;11.11;63.90;98800.34;10503404;28;20075;-75
2021/10/31 22:28:07;;;;;;;23.30;21.60;;;;;;;11.05;64.28;98807.69;10502806;28;20401;-76
2021/10/31 22:33:13;;;;;;;23.27;21.15;;;;;;;10.81;65.10;98802.81;10485434;28;20452;-75
2021/10/31 22:38:17;;;;;;;22.88;21.00;;;;;;;10.93;64.64;98816.22;10503873;28;20047;-74
2021/10/31 22:43:19;;;;;;;24.00;22.00;;;;;;;10.95;64.68;98806.50;10483863;28;20052;-76
2021/10/31 22:48:24;;;;;;;23.70;21.85;;;;;;;10.85;65.08;98804.34;10484616;28;20048;-76
2021/10/31 22:53:27;;;;;;;24.17;22.27;;;;;;;10.79;65.12;98788.88;10501940;28;20060;-75
2021/10/31 22:58:28;;;;;;;24.27;22.27;;;;;;;10.82;65.02;98783.47;10501314;28;20045;-75
2021/10/31 23:03:33;;;;;;;23.38;21.50;;;;;;;10.47;66.19;98782.69;10502095;28;20112;-75
2021/10/31 23:08:36;;;;;;;25.25;23.17;;;;;;;10.28;67.04;98792.44;10484030;28;20124;-74
2021/10/31 23:13:40;;;;;;;24.33;22.58;;;;;;;10.53;65.96;98771.84;10500839;28;20425;-77